CheckWX is a tool to help pilots better visualize weather data.  It is not intended as a substitute for an official pre-flight weather briefing.

07:28:25 UTC

KSGJ TAF
Northeast Florida Regional Airport
St Augustine, Florida, USA
KSGJ 210541Z 2106/2206 10012KT P6SM VCSH SCT030 BKN070 FM211400 08014G24KT P6SM VCSH SCT030 BKN060 FM212300 08011KT P6SM SCT035 SCT060

Sep-21@
06:00 UTC

Sep-21 @ 06:00 UTC

Sep-21@
14:00 UTC

Sep-21 @ 14:00 UTC

KSGJ 210541Z 2106/2206 10012KT P6SM VCSH SCT030 BKN070
Wind
  • 100° at 12 KTS
Cloud Levels
  • Scattered at 3,000' AGL
  • Broken at 7,000' AGL

Sep-21@
14:00 UTC

Sep-21 @ 14:00 UTC

Sep-21@
23:00 UTC

Sep-21 @ 23:00 UTC

FM211400 08014G24KT P6SM VCSH SCT030 BKN060

From

From Standard forecast or significant change

Wind
  • 080° at 14 KTS
  • {Gusting to 24 KTS
Cloud Levels
  • Scattered at 3,000' AGL
  • Broken at 6,000' AGL

Sep-21@
23:00 UTC

Sep-21 @ 23:00 UTC

Sep-22@
06:00 UTC

Sep-22 @ 06:00 UTC

FM212300 08011KT P6SM SCT035 SCT060

From

From Standard forecast or significant change

Wind
  • 080° at 11 KTS
Cloud Levels
  • Scattered at 3,500' AGL
  • Scattered at 6,000' AGL